createdAt,value
2019-05-11T00:00:36.940Z,11.20
2019-05-11T00:03:06.479Z,11.20
2019-05-11T00:05:36.106Z,11.20
2019-05-11T00:08:05.764Z,11.20
2019-05-11T00:10:35.113Z,11.10
2019-05-11T00:13:04.675Z,11.10
2019-05-11T00:15:34.684Z,11.10
2019-05-11T00:18:03.993Z,11.10
2019-05-11T00:20:33.679Z,11.00
2019-05-11T00:23:03.299Z,11.10
2019-05-11T00:25:32.711Z,11.00
2019-05-11T00:28:02.003Z,11.00
2019-05-11T00:30:31.664Z,11.00
2019-05-11T00:33:00.965Z,11.00
2019-05-11T00:35:30.628Z,11.00
2019-05-11T00:38:00.027Z,11.00
2019-05-11T00:40:29.353Z,11.00
2019-05-11T00:42:58.899Z,11.00
2019-05-11T00:45:28.476Z,11.00
2019-05-11T00:47:57.863Z,11.00
2019-05-11T00:50:38.666Z,11.00
2019-05-11T00:52:58.705Z,11.00
2019-05-11T00:55:28.616Z,10.90
2019-05-11T00:57:58.432Z,10.90
2019-05-11T01:00:27.967Z,10.90
2019-05-11T01:02:58.068Z,10.80
2019-05-11T01:05:27.384Z,10.70
2019-05-11T01:07:56.742Z,10.80
2019-05-11T01:10:41.112Z,10.70
2019-05-11T01:12:57.383Z,10.70
2019-05-11T01:15:26.949Z,10.70
2019-05-11T01:17:56.528Z,10.70
2019-05-11T01:20:25.823Z,10.70
2019-05-11T01:22:55.419Z,10.70
2019-05-11T01:25:25.160Z,10.70
2019-05-11T01:27:54.511Z,10.70
2019-05-11T01:30:23.827Z,10.70
2019-05-11T01:32:53.142Z,10.70
2019-05-11T01:35:22.532Z,10.70
2019-05-11T01:37:52.123Z,10.70
2019-05-11T01:40:21.770Z,10.70
2019-05-11T01:42:51.340Z,10.70
2019-05-11T01:45:20.635Z,10.60
2019-05-11T01:47:49.991Z,10.60
2019-05-11T01:50:19.287Z,10.50
2019-05-11T01:52:48.593Z,10.50
2019-05-11T01:55:17.901Z,10.40
2019-05-11T01:57:47.431Z,10.40
2019-05-11T02:00:17.155Z,10.20
2019-05-11T02:02:46.776Z,10.20
2019-05-11T02:05:28.863Z,10.20
2019-05-11T02:07:59.717Z,10.20
2019-05-11T02:10:29.200Z,10.20
2019-05-11T02:12:58.472Z,10.20
2019-05-11T02:15:28.114Z,10.30
2019-05-11T02:17:58.118Z,10.30
2019-05-11T02:20:27.732Z,10.30
2019-05-11T02:22:57.120Z,10.30
2019-05-11T02:25:26.553Z,10.30
2019-05-11T02:27:56.257Z,10.30
2019-05-11T02:30:26.133Z,10.30
2019-05-11T02:32:55.446Z,10.30
2019-05-11T02:35:24.816Z,10.30
2019-05-11T02:37:54.328Z,10.30
2019-05-11T02:40:23.936Z,10.30
2019-05-11T02:42:53.508Z,10.30
2019-05-11T02:45:36.850Z,10.30
2019-05-11T02:48:06.654Z,10.30
2019-05-11T02:50:37.429Z,10.30
2019-05-11T02:53:07.136Z,10.30
2019-05-11T02:55:36.722Z,10.30
2019-05-11T02:58:07.430Z,10.20
2019-05-11T03:00:42.348Z,10.20
2019-05-11T03:03:11.645Z,10.30
2019-05-11T03:05:41.040Z,10.30
2019-05-11T03:08:10.524Z,10.30
2019-05-11T03:10:40.076Z,10.30
2019-05-11T03:13:09.882Z,10.20
2019-05-11T03:15:39.238Z,10.20
2019-05-11T03:18:08.532Z,10.20
2019-05-11T03:20:38.504Z,10.20
2019-05-11T03:23:08.159Z,10.10
2019-05-11T03:25:37.869Z,10.10
2019-05-11T03:28:07.182Z,10.10
2019-05-11T03:30:36.629Z,10.10
2019-05-11T03:33:06.126Z,10.10
2019-05-11T03:35:35.495Z,10.10
2019-05-11T03:38:04.933Z,10.20
2019-05-11T03:40:34.213Z,10.20
2019-05-11T03:43:04.062Z,10.10
2019-05-11T03:45:34.016Z,10.10
2019-05-11T03:48:03.362Z,10.10
2019-05-11T03:50:32.660Z,10.10
2019-05-11T03:53:01.983Z,10.10
2019-05-11T03:55:31.786Z,10.10
2019-05-11T03:58:01.387Z,10.10
2019-05-11T04:00:30.647Z,10.20
2019-05-11T04:02:59.987Z,10.20
2019-05-11T04:05:29.881Z,10.20
2019-05-11T04:07:59.491Z,10.20
2019-05-11T04:10:28.759Z,10.20
2019-05-11T04:12:58.672Z,10.20
2019-05-11T04:15:27.973Z,10.20
2019-05-11T04:17:57.608Z,10.30
2019-05-11T04:20:27.005Z,10.20
2019-05-11T04:22:56.609Z,10.30
2019-05-11T04:25:25.940Z,10.30
2019-05-11T04:27:55.538Z,10.30
2019-05-11T04:30:24.933Z,10.30
2019-05-11T04:32:54.225Z,10.30
2019-05-11T04:35:24.016Z,10.20
2019-05-11T04:37:54.607Z,10.30
2019-05-11T04:40:23.966Z,10.20
2019-05-11T04:42:56.085Z,10.30
2019-05-11T04:45:24.342Z,10.30
2019-05-11T04:47:53.619Z,10.30
2019-05-11T04:50:23.031Z,10.30
2019-05-11T04:52:52.624Z,10.30
2019-05-11T04:55:22.248Z,10.30
2019-05-11T04:57:52.169Z,10.30
2019-05-11T05:00:21.757Z,10.30
2019-05-11T05:02:51.301Z,10.30
2019-05-11T05:05:21.267Z,10.30
2019-05-11T05:07:50.898Z,10.30
2019-05-11T05:10:22.221Z,10.30
2019-05-11T05:12:53.435Z,10.30
2019-05-11T05:15:22.773Z,10.30
2019-05-11T05:17:52.388Z,10.30
2019-05-11T05:20:22.087Z,10.30
2019-05-11T05:22:51.621Z,10.30
2019-05-11T05:25:21.001Z,10.20
2019-05-11T05:27:50.609Z,10.20
2019-05-11T05:30:19.907Z,10.20
2019-05-11T05:32:49.305Z,10.20
2019-05-11T05:35:18.604Z,10.20
2019-05-11T05:37:47.852Z,10.20
2019-05-11T05:40:17.287Z,10.20
2019-05-11T05:42:46.584Z,10.20
2019-05-11T05:45:15.844Z,10.20
2019-05-11T05:47:45.143Z,10.20
2019-05-11T05:50:14.949Z,10.20
2019-05-11T05:52:44.375Z,10.20
2019-05-11T05:55:13.642Z,10.10
2019-05-11T05:57:43.307Z,10.10
2019-05-11T06:00:13.505Z,10.10
2019-05-11T06:02:42.776Z,10.20
2019-05-11T06:05:12.190Z,10.20
2019-05-11T06:07:41.458Z,10.20
2019-05-11T06:10:10.939Z,10.20
2019-05-11T06:12:40.578Z,10.10
2019-05-11T06:15:10.778Z,10.20
2019-05-11T06:17:40.398Z,10.20
2019-05-11T06:20:09.860Z,10.20
2019-05-11T06:22:39.348Z,10.20
2019-05-11T06:25:08.869Z,10.20
2019-05-11T06:27:38.640Z,10.20
2019-05-11T06:30:08.468Z,10.30
2019-05-11T06:32:37.752Z,10.30
2019-05-11T06:35:07.959Z,10.20
2019-05-11T06:37:37.861Z,10.20
2019-05-11T06:40:07.341Z,10.30
2019-05-11T06:42:36.707Z,10.30
2019-05-11T06:45:06.371Z,10.30
2019-05-11T06:47:35.803Z,10.30
2019-05-11T06:50:05.271Z,10.40
2019-05-11T06:52:34.548Z,10.40
2019-05-11T06:55:04.188Z,10.40
2019-05-11T06:57:33.504Z,10.50
2019-05-11T07:00:03.153Z,10.40
2019-05-11T07:02:32.501Z,10.50
2019-05-11T07:05:01.916Z,10.50
2019-05-11T07:07:46.518Z,10.50
2019-05-11T07:10:02.787Z,10.60
2019-05-11T07:12:32.123Z,10.60
2019-05-11T07:15:01.445Z,10.50
2019-05-11T07:17:31.107Z,10.60
2019-05-11T07:20:00.766Z,10.60
2019-05-11T07:22:30.479Z,10.60
2019-05-11T07:24:59.742Z,10.60
2019-05-11T07:27:29.324Z,10.60
2019-05-11T07:29:58.595Z,10.60
2019-05-11T07:32:29.342Z,10.70
2019-05-11T07:34:59.009Z,10.60
2019-05-11T07:37:28.524Z,10.60
2019-05-11T07:39:58.238Z,10.60
2019-05-11T07:42:28.583Z,10.70
2019-05-11T07:44:58.328Z,10.70
2019-05-11T07:47:28.189Z,10.70
2019-05-11T07:49:58.037Z,10.70
2019-05-11T07:52:28.727Z,10.80
2019-05-11T07:54:58.711Z,10.70
2019-05-11T07:57:28.504Z,10.60
2019-05-11T07:59:58.054Z,10.70
2019-05-11T08:02:29.218Z,10.70
2019-05-11T08:04:58.845Z,10.70
2019-05-11T08:07:28.606Z,10.80
2019-05-11T08:09:58.851Z,10.90
2019-05-11T08:12:28.746Z,10.80
2019-05-11T08:15:08.619Z,10.90
2019-05-11T08:17:29.641Z,11.00
2019-05-11T08:19:59.055Z,11.00
2019-05-11T08:22:28.660Z,10.90
2019-05-11T08:24:58.545Z,10.90
2019-05-11T08:27:28.565Z,10.90
2019-05-11T08:29:58.395Z,10.90
2019-05-11T08:32:28.729Z,10.90
2019-05-11T08:34:58.415Z,11.00
2019-05-11T08:37:28.348Z,11.10
2019-05-11T08:39:58.631Z,11.20
2019-05-11T08:42:29.040Z,11.30
2019-05-11T08:45:14.784Z,11.30
2019-05-11T08:47:29.747Z,11.30
2019-05-11T08:49:59.149Z,11.30
2019-05-11T08:52:28.539Z,11.30
2019-05-11T08:54:57.973Z,11.40
2019-05-11T08:57:28.558Z,11.40
2019-05-11T08:59:58.163Z,11.30
2019-05-11T09:02:27.899Z,11.40
2019-05-11T09:04:58.972Z,11.60
2019-05-11T09:07:28.461Z,11.70
2019-05-11T09:09:58.679Z,11.80
2019-05-11T09:12:28.753Z,11.90
2019-05-11T09:14:58.357Z,12.00
2019-05-11T09:17:28.868Z,12.00
2019-05-11T09:19:58.391Z,11.90
2019-05-11T09:22:28.600Z,12.00
2019-05-11T09:24:58.393Z,12.10
2019-05-11T09:27:28.667Z,12.20
2019-05-11T09:29:58.859Z,12.30
2019-05-11T09:32:28.684Z,12.40
2019-05-11T09:34:58.173Z,12.50
2019-05-11T09:37:28.119Z,12.60
2019-05-11T09:39:58.353Z,12.60
2019-05-11T09:42:28.646Z,12.50
2019-05-11T09:44:58.097Z,12.50
2019-05-11T09:47:28.138Z,12.60
2019-05-11T09:49:58.187Z,12.60
2019-05-11T09:52:32.465Z,12.60
2019-05-11T09:55:02.408Z,12.70
2019-05-11T09:57:32.053Z,12.80
2019-05-11T10:00:01.587Z,12.80
2019-05-11T10:02:30.930Z,12.90
2019-05-11T10:05:00.667Z,12.90
2019-05-11T10:07:32.475Z,12.90
2019-05-11T10:10:01.015Z,12.90
2019-05-11T10:12:30.605Z,12.90
2019-05-11T10:14:59.931Z,12.80
2019-05-11T10:17:29.220Z,12.80
2019-05-11T10:19:58.495Z,12.80
2019-05-11T10:22:27.914Z,12.90
2019-05-11T10:24:58.295Z,12.90
2019-05-11T10:27:28.163Z,13.00
2019-05-11T10:29:58.935Z,13.10
2019-05-11T10:32:28.858Z,13.20
2019-05-11T10:34:58.727Z,13.20
2019-05-11T10:37:28.439Z,13.30
2019-05-11T10:39:57.944Z,13.40
2019-05-11T10:42:28.521Z,13.40
2019-05-11T10:44:58.424Z,13.40
2019-05-11T10:47:28.006Z,13.30
2019-05-11T10:49:58.043Z,13.30
2019-05-11T10:52:28.525Z,13.30
2019-05-11T10:54:58.768Z,13.30
2019-05-11T10:57:28.447Z,13.20
2019-05-11T10:59:58.181Z,13.30
2019-05-11T11:02:28.037Z,13.40
2019-05-11T11:05:02.130Z,13.40
2019-05-11T11:07:43.463Z,13.60
2019-05-11T11:10:18.308Z,13.60
2019-05-11T11:12:48.947Z,13.70
2019-05-11T11:15:20.975Z,13.60
2019-05-11T11:20:39.056Z,13.70
2019-05-11T11:23:08.944Z,13.80
2019-05-11T11:25:38.434Z,13.80
2019-05-11T11:28:08.447Z,13.80
2019-05-11T11:30:38.098Z,13.80
2019-05-11T11:33:07.982Z,13.90
2019-05-11T11:35:38.567Z,14.10
2019-05-11T11:38:08.693Z,14.00
2019-05-11T11:40:38.932Z,14.10
2019-05-11T11:43:08.773Z,14.20
2019-05-11T11:45:38.328Z,14.30
2019-05-11T11:48:08.639Z,14.60
2019-05-11T11:50:38.261Z,14.90
2019-05-11T11:53:08.410Z,15.10
2019-05-11T11:55:45.161Z,15.00
2019-05-11T11:58:14.453Z,15.00
2019-05-11T12:00:44.064Z,14.80
2019-05-11T12:03:13.367Z,14.60
2019-05-11T12:05:43.254Z,14.60
2019-05-11T12:08:12.595Z,14.50
2019-05-11T12:10:41.976Z,14.50
2019-05-11T12:13:11.540Z,14.60
2019-05-11T12:15:41.215Z,14.70
2019-05-11T12:18:10.776Z,14.90
2019-05-11T12:20:40.063Z,15.00
2019-05-11T12:23:09.696Z,15.00
2019-05-11T12:25:40.627Z,15.00
2019-05-11T12:28:10.075Z,15.10
2019-05-11T12:30:39.403Z,15.20
2019-05-11T12:33:08.662Z,15.10
2019-05-11T12:35:38.219Z,15.00
2019-05-11T12:38:07.873Z,14.90
2019-05-11T12:40:38.867Z,14.90
2019-05-11T12:43:08.680Z,15.00
2019-05-11T12:45:37.935Z,15.20
2019-05-11T12:48:09.011Z,15.20
2019-05-11T12:50:38.263Z,15.20
2019-05-11T12:53:08.062Z,15.30
2019-05-11T12:55:38.085Z,15.30
2019-05-11T12:58:08.643Z,15.10
2019-05-11T13:00:39.242Z,15.20
2019-05-11T13:03:08.753Z,15.40
2019-05-11T13:05:38.424Z,15.40
2019-05-11T13:08:08.161Z,15.50
2019-05-11T13:10:37.770Z,15.40
2019-05-11T13:13:08.903Z,15.40
2019-05-11T13:15:38.849Z,15.50
2019-05-11T13:18:08.606Z,15.50
2019-05-11T13:20:37.948Z,15.40
2019-05-11T13:23:08.111Z,15.40
2019-05-11T13:25:38.830Z,15.40
2019-05-11T13:28:08.662Z,15.30
2019-05-11T13:30:38.416Z,15.20
2019-05-11T13:33:08.510Z,15.20
2019-05-11T13:35:38.120Z,14.90
2019-05-11T13:38:08.698Z,14.90
2019-05-11T13:40:38.582Z,14.90
2019-05-11T13:43:08.414Z,14.60
2019-05-11T13:45:38.837Z,14.70
2019-05-11T13:48:08.667Z,14.80
2019-05-11T13:50:39.062Z,15.00
2019-05-11T13:53:08.606Z,15.00
2019-05-11T13:55:38.815Z,15.00
2019-05-11T13:58:08.460Z,14.90
2019-05-11T14:00:38.174Z,14.50
2019-05-11T14:03:08.983Z,14.40
2019-05-11T14:05:38.398Z,14.40
2019-05-11T14:08:08.278Z,14.40
2019-05-11T14:10:38.511Z,14.30
2019-05-11T14:13:08.889Z,14.30
2019-05-11T14:15:38.896Z,14.30
2019-05-11T14:18:11.388Z,14.40
2019-05-11T14:20:39.844Z,14.50
2019-05-11T14:23:09.129Z,14.80
2019-05-11T14:25:38.426Z,15.00
2019-05-11T14:28:08.890Z,15.10
2019-05-11T14:30:38.838Z,15.20
2019-05-11T14:33:08.815Z,15.30
2019-05-11T14:35:38.578Z,15.40
2019-05-11T14:38:08.250Z,15.40
2019-05-11T14:40:38.763Z,15.40
2019-05-11T14:43:08.537Z,15.50
2019-05-11T14:45:38.208Z,15.50
2019-05-11T14:48:22.586Z,15.20
2019-05-11T14:50:39.071Z,15.10
2019-05-11T14:53:08.746Z,15.20
2019-05-11T14:55:38.607Z,15.30
2019-05-11T14:58:08.457Z,15.30
2019-05-11T15:00:39.238Z,15.20
2019-05-11T15:03:09.055Z,15.10
2019-05-11T15:05:41.274Z,15.10
2019-05-11T15:08:09.786Z,15.20
2019-05-11T15:10:39.142Z,15.30
2019-05-11T15:13:08.514Z,15.20
2019-05-11T15:15:39.398Z,15.50
2019-05-11T15:18:08.882Z,15.40
2019-05-11T15:20:38.898Z,15.30
2019-05-11T15:23:09.032Z,15.70
2019-05-11T15:25:38.497Z,16.00
2019-05-11T15:28:08.972Z,16.20
2019-05-11T15:30:38.435Z,16.30
2019-05-11T15:33:07.924Z,16.10
2019-05-11T15:35:37.957Z,15.90
2019-05-11T15:38:08.713Z,15.80
2019-05-11T15:40:38.571Z,15.80
2019-05-11T15:43:08.729Z,15.70
2019-05-11T15:45:38.592Z,15.50
2019-05-11T15:48:08.537Z,15.50
2019-05-11T15:50:40.255Z,15.40
2019-05-11T15:53:09.121Z,15.30
2019-05-11T15:55:42.305Z,15.30
2019-05-11T15:58:10.342Z,15.40
2019-05-11T16:00:40.175Z,15.30
2019-05-11T16:03:09.848Z,15.20
2019-05-11T16:05:39.133Z,15.30
2019-05-11T16:08:08.548Z,15.20
2019-05-11T16:10:38.609Z,15.20
2019-05-11T16:13:09.140Z,15.10
2019-05-11T16:15:38.667Z,15.20
2019-05-11T16:18:08.504Z,15.10
2019-05-11T16:20:38.051Z,15.10
2019-05-11T16:23:07.796Z,15.10
2019-05-11T16:25:38.224Z,15.10
2019-05-11T16:28:10.450Z,15.20
2019-05-11T16:30:39.631Z,15.50
2019-05-11T16:33:09.013Z,15.50
2019-05-11T16:35:38.686Z,15.50
2019-05-11T16:38:10.850Z,15.40
2019-05-11T16:40:39.303Z,15.50
2019-05-11T16:43:08.695Z,15.60
2019-05-11T16:45:38.799Z,15.60
2019-05-11T16:48:08.718Z,15.50
2019-05-11T16:50:38.531Z,15.60
2019-05-11T16:53:07.922Z,15.80
2019-05-11T16:55:37.732Z,15.70
2019-05-11T16:58:08.344Z,15.60
2019-05-11T17:00:41.904Z,15.50
2019-05-11T17:03:09.383Z,15.50
2019-05-11T17:05:39.017Z,15.40
2019-05-11T17:08:08.306Z,15.40
2019-05-11T17:10:37.852Z,15.20
2019-05-11T17:13:08.631Z,15.00
2019-05-11T17:15:38.126Z,14.90
2019-05-11T17:18:08.171Z,14.80
2019-05-11T17:20:37.907Z,14.60
2019-05-11T17:23:07.196Z,14.60
2019-05-11T17:25:38.006Z,14.70
2019-05-11T17:28:10.049Z,14.90
2019-05-11T17:30:39.030Z,15.00
2019-05-11T17:33:08.954Z,15.20
2019-05-11T17:35:38.302Z,15.30
2019-05-11T17:38:07.986Z,15.30
2019-05-11T17:40:37.837Z,15.20
2019-05-11T17:43:09.048Z,15.20
2019-05-11T17:45:38.309Z,15.10
2019-05-11T17:48:08.401Z,15.20
2019-05-11T17:50:38.411Z,15.30
2019-05-11T17:53:07.931Z,15.30
2019-05-11T17:55:38.274Z,15.10
2019-05-11T17:58:08.747Z,15.00
2019-05-11T18:00:39.239Z,14.90
2019-05-11T18:03:11.367Z,14.80
2019-05-11T18:05:40.112Z,14.80
2019-05-11T18:08:10.066Z,14.70
2019-05-11T18:10:39.517Z,14.60
2019-05-11T18:13:09.048Z,14.50
2019-05-11T18:15:38.363Z,14.50
2019-05-11T18:18:09.363Z,14.50
2019-05-11T18:20:38.984Z,14.50
2019-05-11T18:23:08.430Z,14.40
2019-05-11T18:25:39.033Z,14.40
2019-05-11T18:28:08.739Z,14.50
2019-05-11T18:30:38.796Z,14.50
2019-05-11T18:33:08.589Z,14.40
2019-05-11T18:35:38.323Z,14.50
2019-05-11T18:38:08.530Z,14.40
2019-05-11T18:40:38.311Z,14.40
2019-05-11T18:43:08.605Z,14.30
2019-05-11T18:45:38.536Z,14.20
2019-05-11T18:48:08.309Z,14.20
2019-05-11T18:50:38.562Z,14.20
2019-05-11T18:53:09.125Z,14.10
2019-05-11T18:55:39.038Z,14.00
2019-05-11T18:58:08.562Z,14.00
2019-05-11T19:00:38.288Z,13.90
2019-05-11T19:03:08.771Z,13.80
2019-05-11T19:05:38.678Z,13.80
2019-05-11T19:08:08.355Z,13.70
2019-05-11T19:10:38.364Z,13.60
2019-05-11T19:13:07.978Z,13.60
2019-05-11T19:15:38.879Z,13.60
2019-05-11T19:18:08.585Z,13.50
2019-05-11T19:20:45.675Z,13.50
2019-05-11T19:23:09.215Z,13.40
2019-05-11T19:25:38.747Z,13.40
2019-05-11T19:28:08.651Z,13.30
2019-05-11T19:30:38.555Z,13.20
2019-05-11T19:33:11.096Z,13.20
2019-05-11T19:35:39.252Z,13.10
2019-05-11T19:38:14.843Z,13.10
2019-05-11T19:40:44.572Z,13.00
2019-05-11T19:43:13.815Z,12.90
2019-05-11T19:45:43.089Z,12.80
2019-05-11T19:48:12.727Z,12.80
2019-05-11T19:50:42.792Z,12.70
2019-05-11T19:53:12.498Z,12.70
2019-05-11T19:55:41.739Z,12.60
2019-05-11T19:58:11.027Z,12.50
2019-05-11T20:00:41.213Z,12.40
2019-05-11T20:03:10.922Z,12.30
2019-05-11T20:05:40.548Z,12.30
2019-05-11T20:08:09.832Z,12.20
2019-05-11T20:10:39.127Z,12.20
2019-05-11T20:13:09.683Z,12.20
2019-05-11T20:15:39.251Z,12.10
2019-05-11T20:18:08.533Z,12.00
2019-05-11T20:20:37.965Z,12.00
2019-05-11T20:23:07.839Z,11.90
2019-05-11T20:25:37.980Z,11.90
2019-05-11T20:28:07.804Z,11.80
2019-05-11T20:30:37.408Z,11.80
2019-05-11T20:33:08.638Z,11.70
2019-05-11T20:35:39.258Z,11.60
2019-05-11T20:38:09.011Z,11.60
2019-05-11T20:40:38.386Z,11.50
2019-05-11T20:43:07.983Z,11.40
2019-05-11T20:45:37.780Z,11.40
2019-05-11T20:48:08.073Z,11.30
2019-05-11T20:50:37.846Z,11.20
2019-05-11T20:53:08.595Z,11.20
2019-05-11T20:55:38.291Z,11.10
2019-05-11T20:58:08.571Z,11.10
2019-05-11T21:00:38.389Z,11.00
2019-05-11T21:03:08.066Z,11.00
2019-05-11T21:05:37.760Z,10.90
2019-05-11T21:08:08.542Z,10.90
2019-05-11T21:10:38.737Z,10.80
2019-05-11T21:13:08.671Z,10.80
2019-05-11T21:15:38.559Z,10.70
2019-05-11T21:18:08.380Z,10.60
2019-05-11T21:20:38.231Z,10.50
2019-05-11T21:23:08.355Z,10.50
2019-05-11T21:25:38.087Z,10.40
2019-05-11T21:28:08.473Z,10.30
2019-05-11T21:30:40.006Z,10.20
2019-05-11T21:33:09.423Z,10.20
2019-05-11T21:35:38.970Z,10.20
2019-05-11T21:38:08.479Z,10.20
2019-05-11T21:40:38.185Z,10.10
2019-05-11T21:43:08.705Z,10.10
2019-05-11T21:45:40.772Z,10.00
2019-05-11T21:48:09.673Z,10.00
2019-05-11T21:50:39.085Z,9.90
2019-05-11T21:53:10.632Z,9.90
2019-05-11T21:55:40.297Z,9.80
2019-05-11T21:58:10.654Z,9.80
2019-05-11T22:00:40.263Z,9.80
2019-05-11T22:03:10.452Z,9.70
2019-05-11T22:05:39.825Z,9.60
2019-05-11T22:08:09.405Z,9.60
2019-05-11T22:10:38.766Z,9.60
2019-05-11T22:13:08.110Z,9.50
2019-05-11T22:15:38.542Z,9.50
2019-05-11T22:18:08.210Z,9.50
2019-05-11T22:20:40.725Z,9.40
2019-05-11T22:23:08.670Z,9.40
2019-05-11T22:25:38.357Z,9.40
2019-05-11T22:28:08.678Z,9.30
2019-05-11T22:30:39.252Z,9.30
2019-05-11T22:33:09.093Z,9.20
2019-05-11T22:35:39.347Z,9.20
2019-05-11T22:38:08.911Z,9.20
2019-05-11T22:40:38.524Z,9.10
2019-05-11T22:43:09.402Z,9.10
2019-05-11T22:45:39.032Z,9.10
2019-05-11T22:48:08.535Z,8.90
2019-05-11T22:50:38.349Z,8.90
2019-05-11T22:53:08.720Z,8.80
2019-05-11T22:55:39.443Z,8.80
2019-05-11T22:58:08.799Z,8.80
2019-05-11T23:00:45.350Z,8.70
2019-05-11T23:03:14.636Z,8.70
2019-05-11T23:05:44.395Z,8.70
2019-05-11T23:08:13.671Z,8.60
2019-05-11T23:10:42.951Z,8.60
2019-05-11T23:13:12.551Z,8.60
2019-05-11T23:15:41.831Z,8.50
2019-05-11T23:18:12.964Z,8.50
2019-05-11T23:20:42.569Z,8.50
2019-05-11T23:23:11.841Z,8.50
2019-05-11T23:25:41.206Z,8.40
2019-05-11T23:28:10.775Z,8.30
2019-05-11T23:30:40.367Z,8.30
2019-05-11T23:33:09.911Z,8.30
2019-05-11T23:35:39.196Z,8.20
2019-05-11T23:38:08.445Z,8.30
2019-05-11T23:40:38.157Z,8.20
2019-05-11T23:43:08.639Z,8.20
2019-05-11T23:45:38.912Z,8.20
2019-05-11T23:48:08.162Z,8.20
2019-05-11T23:50:38.601Z,8.10
2019-05-11T23:53:10.218Z,8.10
2019-05-11T23:55:40.043Z,8.10
2019-05-11T23:58:11.319Z,8.10
